Time;durP1;ratioP1;P1;durP2;ratioP2;P2;SDS_P1;SDS_P2;PMS_P1;PMS_P2;Temp;Humidity;BMP_temperature;BMP_pressure;BME280_temperature;BME280_humidity;BME280_pressure;Samples;Min_cycle;Max_cycle;Signal;HPM_P1;HPM_P2
2023/01/09 00:00:31;;;;;;;5.30;2.08;;;6.20;99.90;;;;;;5091235;28;20044;-80
2023/01/09 00:02:58;;;;;;;5.85;2.00;;;6.30;99.90;;;;;;5071806;28;20745;-80
2023/01/09 00:05:25;;;;;;;5.40;1.88;;;6.30;99.90;;;;;;5073839;28;20040;-80
2023/01/09 00:07:51;;;;;;;4.65;1.85;;;6.30;99.90;;;;;;5105035;28;20055;-80
2023/01/09 00:10:18;;;;;;;9.05;2.28;;;6.30;99.90;;;;;;5073805;28;20048;-80
2023/01/09 00:12:45;;;;;;;5.30;2.20;;;6.40;99.90;;;;;;5090335;28;20076;-80
2023/01/09 00:15:12;;;;;;;6.13;2.30;;;6.40;99.90;;;;;;5118181;28;20415;-80
2023/01/09 00:17:38;;;;;;;3.35;1.77;;;6.40;99.90;;;;;;5089405;28;20102;-80
2023/01/09 00:20:08;;;;;;;4.97;1.90;;;6.50;99.90;;;;;;5106727;28;20044;-80
2023/01/09 00:22:36;;;;;;;4.18;1.80;;;6.40;99.90;;;;;;5108722;28;20472;-80
2023/01/09 00:25:03;;;;;;;5.13;1.90;;;6.40;99.90;;;;;;5090500;28;20072;-80
2023/01/09 00:27:35;;;;;;;6.25;1.88;;;6.40;99.90;;;;;;5093767;28;20056;-80
2023/01/09 00:30:02;;;;;;;4.97;2.00;;;6.40;99.90;;;;;;5127327;28;20404;-80
2023/01/09 00:32:29;;;;;;;5.32;1.88;;;6.40;99.90;;;;;;5109550;28;20048;-80
2023/01/09 00:34:56;;;;;;;3.38;1.50;;;6.40;99.90;;;;;;5107696;28;20044;-80
2023/01/09 00:37:23;;;;;;;5.68;1.85;;;6.50;99.90;;;;;;5087315;28;20035;-80
2023/01/09 00:39:49;;;;;;;3.95;1.63;;;6.50;99.90;;;;;;5100784;28;20051;-79
2023/01/09 00:42:20;;;;;;;6.03;2.10;;;6.50;99.90;;;;;;5097214;28;20428;-80
2023/01/09 00:44:53;;;;;;;3.38;1.63;;;6.50;99.90;;;;;;5106891;28;20094;-80
2023/01/09 00:47:52;;;;;;;4.10;1.90;;;6.60;99.90;;;;;;5109732;28;20040;-80
2023/01/09 00:50:23;;;;;;;4.63;1.80;;;6.50;99.90;;;;;;5109435;28;20051;-80
2023/01/09 00:52:52;;;;;;;4.18;1.77;;;6.60;99.90;;;;;;5111339;28;20033;-80
2023/01/09 00:55:19;;;;;;;6.32;1.95;;;6.60;99.90;;;;;;5088076;28;20052;-80
2023/01/09 00:57:46;;;;;;;6.47;2.00;;;6.60;99.90;;;;;;5075504;28;20059;-80
2023/01/09 01:00:13;;;;;;;4.35;1.80;;;6.60;99.90;;;;;;5089907;28;20062;-80
2023/01/09 01:02:40;;;;;;;6.20;2.38;;;6.60;99.90;;;;;;5109726;28;20047;-80
2023/01/09 01:07:52;;;;;;;7.55;2.30;;;6.60;99.90;;;;;;5113758;28;20037;-81
2023/01/09 01:10:24;;;;;;;7.00;2.50;;;6.60;99.90;;;;;;5103418;28;20392;-80
2023/01/09 01:12:51;;;;;;;9.63;2.58;;;6.50;99.90;;;;;;5126603;28;20491;-81
2023/01/09 01:15:18;;;;;;;8.18;2.80;;;6.50;99.90;;;;;;5110242;28;20085;-81
2023/01/09 01:17:45;;;;;;;5.68;2.78;;;6.50;99.90;;;;;;5126781;28;20036;-81
2023/01/09 01:20:15;;;;;;;6.70;2.38;;;6.40;99.90;;;;;;5090956;28;20044;-81
2023/01/09 01:22:42;;;;;;;9.80;3.03;;;6.40;99.90;;;;;;5089960;28;20550;-81
2023/01/09 01:25:10;;;;;;;6.10;2.65;;;6.40;99.90;;;;;;5072863;28;20404;-81
2023/01/09 01:27:37;;;;;;;6.15;3.00;;;6.40;99.90;;;;;;5089954;28;20064;-81
2023/01/09 01:30:06;;;;;;;11.85;3.08;;;6.40;99.90;;;;;;5089434;28;20381;-81
2023/01/09 01:32:33;;;;;;;7.75;3.10;;;6.40;99.90;;;;;;5078889;28;20042;-81
2023/01/09 01:34:59;;;;;;;6.53;3.33;;;6.40;99.90;;;;;;5092058;28;20040;-81
2023/01/09 01:37:26;;;;;;;5.70;2.45;;;6.40;99.90;;;;;;5085686;28;20044;-81
2023/01/09 01:39:53;;;;;;;4.97;2.25;;;6.40;99.90;;;;;;5091338;28;20386;-81
2023/01/09 01:42:20;;;;;;;4.93;1.90;;;6.30;99.90;;;;;;5080477;28;20119;-80
2023/01/09 01:44:58;;;;;;;6.53;2.00;;;6.30;99.90;;;;;;5089797;28;20128;-80
2023/01/09 01:48:10;;;;;;;3.58;1.30;;;6.30;99.90;;;;;;5090827;28;20485;-80
2023/01/09 01:50:43;;;;;;;3.70;1.38;;;6.20;99.90;;;;;;5085826;28;20519;-81
2023/01/09 01:53:46;;;;;;;2.90;1.10;;;6.20;99.90;;;;;;5101065;28;20076;-80
2023/01/09 01:56:19;;;;;;;5.63;1.20;;;6.20;99.90;;;;;;5103837;28;20041;-81
2023/01/09 01:59:00;;;;;;;2.20;1.17;;;6.10;99.90;;;;;;5104377;28;20039;-81
2023/01/09 02:01:28;;;;;;;3.95;1.60;;;6.10;99.90;;;;;;5088876;28;20079;-81
2023/01/09 02:03:57;;;;;;;3.17;1.27;;;6.10;99.90;;;;;;5090175;28;20125;-81
2023/01/09 02:06:25;;;;;;;4.43;1.58;;;6.00;99.90;;;;;;5105629;28;20075;-80
2023/01/09 02:08:52;;;;;;;4.03;1.17;;;6.00;99.90;;;;;;5086125;28;20544;-80
2023/01/09 02:11:20;;;;;;;4.00;1.30;;;6.00;99.90;;;;;;5099002;28;20143;-81
2023/01/09 02:13:48;;;;;;;5.15;1.25;;;6.10;99.90;;;;;;5114320;28;20113;-81
2023/01/09 02:16:28;;;;;;;5.95;1.30;;;6.00;99.90;;;;;;5088497;28;20052;-81
2023/01/09 02:19:20;;;;;;;3.42;1.20;;;6.00;99.90;;;;;;5092920;28;20115;-81
2023/01/09 02:22:01;;;;;;;3.17;1.00;;;5.90;99.90;;;;;;5122254;28;20123;-81
2023/01/09 02:25:16;;;;;;;3.20;1.30;;;5.90;99.90;;;;;;5117340;28;20038;-81
2023/01/09 02:28:00;;;;;;;2.80;1.33;;;6.00;99.90;;;;;;5049139;28;20044;-80
2023/01/09 02:30:54;;;;;;;3.30;1.20;;;5.90;99.90;;;;;;5098929;28;20040;-80
2023/01/09 02:33:24;;;;;;;2.88;1.30;;;5.90;99.90;;;;;;5088175;28;20048;-80
2023/01/09 02:36:17;;;;;;;3.60;1.30;;;5.90;99.90;;;;;;5088798;28;20052;-80
2023/01/09 02:39:08;;;;;;;3.45;1.60;;;5.90;99.90;;;;;;5090707;28;20052;-81
2023/01/09 02:42:04;;;;;;;4.57;1.25;;;5.90;99.90;;;;;;5108779;28;20130;-80
2023/01/09 02:44:35;;;;;;;3.60;1.30;;;5.90;99.90;;;;;;5105010;28;20094;-80
2023/01/09 02:47:28;;;;;;;3.22;1.20;;;6.00;99.90;;;;;;5108641;28;20043;-80
2023/01/09 02:50:00;;;;;;;3.20;1.30;;;6.00;99.90;;;;;;5118340;28;20056;-81
2023/01/09 02:53:02;;;;;;;4.03;1.40;;;6.00;99.90;;;;;;5109553;28;20399;-81
2023/01/09 02:55:38;;;;;;;3.65;1.38;;;6.00;99.90;;;;;;5106549;28;20082;-81
2023/01/09 02:58:26;;;;;;;4.20;1.10;;;5.90;99.90;;;;;;5105220;28;20493;-80
2023/01/09 03:01:23;;;;;;;3.97;1.33;;;6.00;99.90;;;;;;5105201;28;20051;-81
2023/01/09 03:03:56;;;;;;;3.30;1.40;;;5.90;99.90;;;;;;5087968;28;20136;-81
2023/01/09 03:06:53;;;;;;;4.55;1.50;;;5.90;99.90;;;;;;5087916;28;20051;-81
2023/01/09 03:09:21;;;;;;;;;;;5.90;99.90;;;;;;5091668;28;20511;-81
2023/01/09 03:11:56;;;;;;;6.13;1.70;;;5.90;99.90;;;;;;5092269;28;19967;-81
2023/01/09 03:14:25;;;;;;;5.07;1.70;;;5.90;99.90;;;;;;5111971;28;20051;-81
2023/01/09 03:17:00;;;;;;;6.10;1.52;;;5.80;99.90;;;;;;5111963;28;20449;-81
2023/01/09 03:19:30;;;;;;;4.53;1.80;;;5.80;99.90;;;;;;5129011;28;20070;-81
2023/01/09 03:21:57;;;;;;;5.22;1.75;;;5.80;99.90;;;;;;5109361;28;20035;-81
2023/01/09 03:24:24;;;;;;;5.78;1.90;;;5.80;99.90;;;;;;5096646;28;20503;-81
2023/01/09 03:26:53;;;;;;;4.40;2.08;;;5.70;99.90;;;;;;5093368;28;20128;-81
2023/01/09 03:29:20;;;;;;;3.42;1.77;;;5.70;99.90;;;;;;5112287;28;20047;-81
2023/01/09 03:31:47;;;;;;;6.35;1.98;;;5.70;99.90;;;;;;5128134;28;20036;-80
2023/01/09 03:34:13;;;;;;;6.80;2.20;;;5.60;99.90;;;;;;5091866;28;20040;-81
2023/01/09 03:36:40;;;;;;;5.32;2.00;;;5.60;99.90;;;;;;5112833;28;20036;-80
2023/01/09 03:39:07;;;;;;;4.05;2.10;;;5.60;99.90;;;;;;5119796;28;20043;-81
2023/01/09 03:41:33;;;;;;;7.82;2.42;;;5.50;99.90;;;;;;5111426;28;20032;-81
2023/01/09 03:44:00;;;;;;;4.22;2.20;;;5.50;99.90;;;;;;5099012;28;20074;-81
2023/01/09 03:46:27;;;;;;;4.78;2.00;;;5.50;99.90;;;;;;5110908;28;20036;-81
2023/01/09 03:48:54;;;;;;;6.88;2.15;;;5.40;99.90;;;;;;5107786;28;20046;-81
2023/01/09 03:51:20;;;;;;;7.22;2.38;;;5.40;99.90;;;;;;5106396;28;20834;-80
2023/01/09 03:53:47;;;;;;;5.68;2.22;;;5.40;99.90;;;;;;5084237;28;20098;-81
2023/01/09 03:56:14;;;;;;;4.28;2.17;;;5.40;99.90;;;;;;5091680;28;20462;-80
2023/01/09 03:58:40;;;;;;;7.82;2.28;;;5.40;99.90;;;;;;5114041;28;20503;-80
2023/01/09 04:01:11;;;;;;;4.88;2.25;;;5.40;99.90;;;;;;5090742;28;20043;-80
2023/01/09 04:03:38;;;;;;;8.18;2.47;;;5.30;99.90;;;;;;5109272;28;20450;-81
2023/01/09 04:06:06;;;;;;;7.30;2.78;;;5.40;99.90;;;;;;5107820;28;20047;-80
2023/01/09 04:08:32;;;;;;;8.70;2.45;;;5.20;99.90;;;;;;5093900;28;20041;-81
2023/01/09 04:10:59;;;;;;;7.90;2.42;;;5.30;99.90;;;;;;5081902;28;20041;-80
2023/01/09 04:13:26;;;;;;;10.05;2.80;;;5.20;99.90;;;;;;5124091;28;20066;-81
2023/01/09 04:15:53;;;;;;;11.75;2.80;;;5.20;99.90;;;;;;5091032;28;20404;-81
2023/01/09 04:18:22;;;;;;;8.30;2.30;;;5.20;99.90;;;;;;5061416;28;20044;-81
2023/01/09 04:20:49;;;;;;;7.72;2.50;;;5.20;99.90;;;;;;5114178;28;20464;-81
2023/01/09 04:23:15;;;;;;;10.23;2.88;;;5.30;99.90;;;;;;5093422;28;20102;-80
2023/01/09 04:25:42;;;;;;;9.55;2.95;;;5.10;99.90;;;;;;5127187;28;20102;-80
2023/01/09 04:28:09;;;;;;;10.13;3.05;;;5.10;99.90;;;;;;5093363;28;20036;-80
2023/01/09 04:30:36;;;;;;;10.10;2.80;;;5.10;99.90;;;;;;5104147;28;20037;-81
2023/01/09 04:33:02;;;;;;;7.93;2.53;;;5.00;99.90;;;;;;5105300;28;20043;-80
2023/01/09 04:35:29;;;;;;;7.00;2.63;;;5.10;99.90;;;;;;5073832;28;20488;-80
2023/01/09 04:37:56;;;;;;;12.52;2.83;;;5.00;99.90;;;;;;5074224;28;20049;-81
2023/01/09 04:40:22;;;;;;;8.70;2.58;;;5.00;99.90;;;;;;5090184;28;20040;-80
2023/01/09 04:42:49;;;;;;;5.60;2.40;;;4.90;99.90;;;;;;5065457;28;20131;-80
2023/01/09 04:45:19;;;;;;;12.93;2.97;;;4.90;99.90;;;;;;5094426;28;20062;-80
2023/01/09 04:47:46;;;;;;;11.65;3.00;;;4.90;99.90;;;;;;5090088;28;20036;-80
2023/01/09 04:50:13;;;;;;;7.88;2.90;;;4.90;99.90;;;;;;5110568;28;20115;-81
2023/01/09 04:52:40;;;;;;;10.38;3.03;;;4.90;99.90;;;;;;5082014;28;20123;-81
2023/01/09 04:55:07;;;;;;;6.40;2.75;;;4.90;99.90;;;;;;5073496;28;20484;-80
2023/01/09 04:57:35;;;;;;;9.70;2.85;;;4.90;99.90;;;;;;5095880;28;20123;-81
2023/01/09 05:00:08;;;;;;;8.48;2.95;;;4.90;99.90;;;;;;5108251;28;20090;-80
2023/01/09 05:02:35;;;;;;;6.47;2.90;;;4.80;99.90;;;;;;5103615;28;20091;-81
2023/01/09 05:05:04;;;;;;;10.15;2.92;;;4.80;99.90;;;;;;5090042;28;20058;-80
2023/01/09 05:07:31;;;;;;;5.38;2.42;;;4.80;99.90;;;;;;5106730;28;20442;-80
2023/01/09 05:09:58;;;;;;;7.90;3.45;;;4.70;99.90;;;;;;5090207;28;20119;-80
2023/01/09 05:12:25;;;;;;;10.68;3.72;;;4.80;99.90;;;;;;5079590;28;20144;-80
2023/01/09 05:14:52;;;;;;;8.77;3.50;;;4.70;99.90;;;;;;5123978;28;20072;-80
2023/01/09 05:17:19;;;;;;;9.77;3.55;;;4.70;99.90;;;;;;5092647;28;20074;-80
2023/01/09 05:19:45;;;;;;;10.38;3.83;;;4.70;99.90;;;;;;5092830;28;20044;-81
2023/01/09 05:22:12;;;;;;;8.85;4.25;;;4.70;99.90;;;;;;5092916;28;20051;-81
2023/01/09 05:24:39;;;;;;;8.43;4.70;;;4.70;99.90;;;;;;5098387;28;20036;-81
2023/01/09 05:27:06;;;;;;;10.30;4.78;;;4.70;99.90;;;;;;5095767;28;20036;-81
2023/01/09 05:29:33;;;;;;;10.13;4.70;;;4.80;99.90;;;;;;5109366;28;20119;-81
2023/01/09 05:31:59;;;;;;;16.02;5.78;;;4.80;99.90;;;;;;5090840;28;20051;-81
2023/01/09 05:34:26;;;;;;;10.35;5.85;;;4.80;99.90;;;;;;5079818;28;20047;-81
2023/01/09 05:36:53;;;;;;;12.23;5.85;;;4.80;99.90;;;;;;5076633;28;20046;-80
2023/01/09 05:39:19;;;;;;;12.82;5.65;;;4.80;99.90;;;;;;5092753;28;20126;-80
2023/01/09 05:41:46;;;;;;;13.90;5.57;;;4.80;99.90;;;;;;5092347;28;20488;-81
2023/01/09 05:44:13;;;;;;;13.52;5.72;;;4.90;99.90;;;;;;5102782;28;20388;-80
2023/01/09 05:46:39;;;;;;;12.30;6.35;;;5.10;99.90;;;;;;5089411;28;20041;-80
2023/01/09 05:49:06;;;;;;;9.05;5.25;;;4.90;99.90;;;;;;5106871;28;20050;-80
2023/01/09 05:51:33;;;;;;;11.55;6.53;;;4.90;99.90;;;;;;5074408;28;20037;-80
2023/01/09 05:54:00;;;;;;;11.35;6.60;;;4.90;99.90;;;;;;5099747;28;20138;-81
2023/01/09 05:56:28;;;;;;;13.02;7.10;;;4.90;99.90;;;;;;5098276;28;20548;-81
2023/01/09 05:58:55;;;;;;;16.73;7.93;;;5.00;99.90;;;;;;5118929;28;20044;-81
2023/01/09 06:01:22;;;;;;;14.25;8.40;;;4.90;99.90;;;;;;5091680;28;20101;-80
2023/01/09 06:03:49;;;;;;;21.20;9.20;;;5.00;99.90;;;;;;5108576;28;20492;-79
2023/01/09 06:06:15;;;;;;;18.67;9.13;;;5.10;99.90;;;;;;5107431;28;20509;-81
2023/01/09 06:08:42;;;;;;;15.35;9.07;;;5.10;99.90;;;;;;5088912;28;20070;-80
2023/01/09 06:11:09;;;;;;;16.85;9.02;;;5.10;99.90;;;;;;5056072;28;20113;-81
2023/01/09 06:13:35;;;;;;;17.65;9.25;;;5.20;99.90;;;;;;5103370;28;20063;-80
2023/01/09 06:16:02;;;;;;;20.80;9.65;;;5.10;99.90;;;;;;5126229;28;20055;-80
2023/01/09 06:18:29;;;;;;;15.73;9.30;;;5.10;99.90;;;;;;5108644;28;20031;-80
2023/01/09 06:20:55;;;;;;;24.13;9.68;;;5.10;99.90;;;;;;5082671;28;20048;-80
2023/01/09 06:23:22;;;;;;;20.65;10.27;;;5.30;99.90;;;;;;5081475;28;20037;-81
2023/01/09 06:25:49;;;;;;;21.42;10.00;;;5.20;99.90;;;;;;5072109;28;20123;-80
2023/01/09 06:28:15;;;;;;;19.50;10.63;;;5.20;99.90;;;;;;5092940;28;20123;-81
2023/01/09 06:30:42;;;;;;;21.58;9.63;;;5.20;99.90;;;;;;5108503;28;20032;-81
2023/01/09 06:33:09;;;;;;;23.67;10.10;;;5.20;99.90;;;;;;5092605;28;20052;-80
2023/01/09 06:35:35;;;;;;;25.85;10.18;;;5.20;99.90;;;;;;5071868;28;20044;-81
2023/01/09 06:38:02;;;;;;;20.98;9.95;;;5.20;99.90;;;;;;5090016;28;20508;-80
2023/01/09 06:40:29;;;;;;;16.83;10.13;;;5.20;99.90;;;;;;5105226;28;20455;-81
2023/01/09 06:42:55;;;;;;;17.50;9.95;;;5.20;99.90;;;;;;5100618;28;20457;-81
2023/01/09 06:45:22;;;;;;;18.52;9.82;;;5.30;99.90;;;;;;5086588;28;20033;-80
2023/01/09 06:47:49;;;;;;;20.95;9.93;;;5.30;99.90;;;;;;5095586;28;20067;-80
2023/01/09 06:50:16;;;;;;;18.20;9.82;;;5.20;99.90;;;;;;5070282;28;20045;-80
2023/01/09 06:52:42;;;;;;;17.75;9.30;;;5.30;99.90;;;;;;5121076;28;20051;-81
2023/01/09 06:55:09;;;;;;;17.17;9.27;;;5.30;99.90;;;;;;5099019;28;20049;-81
2023/01/09 06:57:36;;;;;;;22.10;8.90;;;5.30;99.90;;;;;;5109039;28;20037;-81
2023/01/09 07:00:06;;;;;;;13.57;7.57;;;5.30;99.90;;;;;;5111720;28;20124;-81
2023/01/09 07:02:33;;;;;;;15.13;8.93;;;5.40;99.90;;;;;;5134608;28;20039;-81
2023/01/09 07:05:00;;;;;;;16.05;8.18;;;5.30;99.90;;;;;;5112330;28;20913;-80
2023/01/09 07:07:27;;;;;;;19.60;8.63;;;5.30;99.90;;;;;;5128102;28;20040;-81
2023/01/09 07:09:53;;;;;;;15.60;8.48;;;5.30;99.90;;;;;;5091634;28;20120;-80
2023/01/09 07:12:20;;;;;;;14.95;8.45;;;5.30;99.90;;;;;;5091742;28;20131;-80
2023/01/09 07:14:47;;;;;;;18.02;8.88;;;5.30;99.90;;;;;;5074905;28;20040;-80
2023/01/09 07:17:13;;;;;;;14.30;7.22;;;5.30;99.90;;;;;;5084514;28;20055;-80
2023/01/09 07:19:40;;;;;;;15.85;7.20;;;5.30;99.90;;;;;;5097814;28;20071;-80
2023/01/09 07:22:07;;;;;;;13.98;7.40;;;5.20;99.90;;;;;;5121542;28;20491;-80
2023/01/09 07:24:34;;;;;;;17.10;7.68;;;5.30;99.90;;;;;;5124493;28;20403;-81
2023/01/09 07:27:01;;;;;;;17.88;7.13;;;5.30;99.90;;;;;;5109805;28;20036;-80
2023/01/09 07:29:28;;;;;;;13.48;7.18;;;5.30;99.90;;;;;;5100074;28;20059;-80
2023/01/09 07:31:55;;;;;;;13.20;6.45;;;5.30;99.90;;;;;;5127863;28;20129;-80
2023/01/09 07:34:22;;;;;;;12.75;6.03;;;5.30;99.90;;;;;;5093254;28;20495;-81
2023/01/09 07:36:50;;;;;;;12.60;5.18;;;5.30;99.90;;;;;;5136807;28;20483;-80
2023/01/09 07:39:16;;;;;;;8.15;4.80;;;5.30;99.90;;;;;;5120867;28;20468;-80
2023/01/09 07:41:44;;;;;;;10.45;4.88;;;5.30;99.90;;;;;;5102890;28;20043;-80
2023/01/09 07:44:11;;;;;;;9.93;4.78;;;5.30;99.90;;;;;;5110225;28;20396;-79
2023/01/09 07:46:38;;;;;;;8.73;4.95;;;5.30;99.90;;;;;;5124182;28;20067;-80
2023/01/09 07:49:04;;;;;;;11.55;5.28;;;5.20;99.90;;;;;;5120957;28;20065;-81
2023/01/09 07:51:31;;;;;;;12.93;4.43;;;5.30;99.90;;;;;;5083021;28;20033;-80
2023/01/09 07:53:58;;;;;;;12.52;4.80;;;5.30;99.90;;;;;;5097443;28;20484;-82
2023/01/09 07:56:25;;;;;;;8.40;4.70;;;5.30;99.90;;;;;;5087782;28;20036;-81
2023/01/09 07:58:52;;;;;;;8.30;3.38;;;5.30;99.90;;;;;;5102771;28;20126;-81
2023/01/09 08:01:18;;;;;;;7.00;3.03;;;5.50;99.90;;;;;;5101957;28;20059;-80
2023/01/09 08:03:45;;;;;;;10.18;3.45;;;5.40;99.90;;;;;;5099938;28;20040;-81
2023/01/09 08:06:12;;;;;;;8.77;3.85;;;5.30;99.90;;;;;;5120673;28;20450;-81
2023/01/09 08:08:38;;;;;;;8.25;3.72;;;5.30;99.90;;;;;;5098271;28;20156;-81
2023/01/09 08:11:05;;;;;;;7.35;3.58;;;5.30;99.90;;;;;;5129917;28;20520;-81
2023/01/09 08:13:32;;;;;;;8.30;3.50;;;5.30;99.90;;;;;;5123225;28;20044;-81
2023/01/09 08:15:58;;;;;;;6.65;3.72;;;5.40;99.90;;;;;;5117674;28;20075;-80
2023/01/09 08:18:25;;;;;;;7.97;3.28;;;5.30;99.90;;;;;;5105794;28;20488;-81
2023/01/09 08:20:52;;;;;;;10.18;3.42;;;5.30;99.90;;;;;;5088380;28;20046;-82
2023/01/09 08:23:18;;;;;;;8.48;3.40;;;5.30;99.90;;;;;;5073194;28;20032;-82
2023/01/09 08:25:45;;;;;;;8.32;3.53;;;5.30;99.90;;;;;;5106167;28;20036;-82
2023/01/09 08:28:12;;;;;;;7.15;3.03;;;5.40;99.90;;;;;;5117128;28;20032;-82
2023/01/09 08:30:39;;;;;;;10.93;3.97;;;5.40;99.90;;;;;;5106662;28;20035;-82
2023/01/09 08:33:05;;;;;;;4.38;2.30;;;5.40;99.90;;;;;;5082438;28;20075;-81
2023/01/09 08:35:32;;;;;;;6.20;3.10;;;5.40;99.90;;;;;;5111745;28;20063;-82
2023/01/09 08:37:59;;;;;;;8.07;2.53;;;5.40;99.90;;;;;;5087049;28;20036;-82
2023/01/09 08:40:26;;;;;;;7.25;2.67;;;5.40;99.90;;;;;;5107494;28;20054;-82
2023/01/09 08:48:23;;;;;;;9.68;2.65;;;5.40;99.90;;;;;;5100950;28;20032;-82
2023/01/09 08:50:52;;;;;;;5.93;2.83;;;5.50;99.90;;;;;;5082042;28;20531;-82
2023/01/09 08:53:19;;;;;;;6.07;2.58;;;5.50;99.90;;;;;;5119153;28;20041;-81
2023/01/09 08:55:46;;;;;;;5.78;2.53;;;5.50;99.90;;;;;;5107690;28;20085;-82
2023/01/09 08:58:13;;;;;;;7.30;2.70;;;5.50;99.90;;;;;;5070895;28;20036;-81
2023/01/09 09:00:40;;;;;;;5.88;2.20;;;5.60;99.90;;;;;;5091907;28;20075;-81
2023/01/09 09:03:08;;;;;;;5.20;2.42;;;5.50;99.90;;;;;;5073801;28;20044;-81
2023/01/09 09:05:34;;;;;;;5.22;2.17;;;5.50;99.90;;;;;;5109234;28;20036;-82
2023/01/09 09:08:02;;;;;;;6.07;2.42;;;5.50;99.90;;;;;;5126227;28;20458;-81
2023/01/09 09:10:29;;;;;;;6.93;2.33;;;5.50;99.90;;;;;;5093629;28;20796;-81
2023/01/09 09:12:57;;;;;;;4.05;1.88;;;5.60;99.90;;;;;;5109849;28;20055;-81
2023/01/09 09:15:28;;;;;;;6.10;2.22;;;5.60;99.90;;;;;;5109603;28;20040;-81
2023/01/09 09:18:01;;;;;;;4.50;2.17;;;5.60;99.90;;;;;;5109330;28;20044;-81
2023/01/09 09:20:30;;;;;;;6.68;2.03;;;5.60;99.90;;;;;;5109603;28;20035;-81
2023/01/09 09:22:57;;;;;;;6.30;2.30;;;5.70;99.90;;;;;;5109013;28;20047;-81
2023/01/09 09:25:25;;;;;;;9.57;2.42;;;5.70;99.90;;;;;;5126257;28;20178;-81
2023/01/09 09:27:51;;;;;;;5.32;1.98;;;5.60;99.90;;;;;;5109663;28;20043;-81
2023/01/09 09:30:19;;;;;;;8.73;2.50;;;5.60;99.90;;;;;;5140094;28;20039;-82
2023/01/09 09:32:46;;;;;;;6.78;3.17;;;5.70;99.90;;;;;;5088984;28;20101;-81
2023/01/09 09:35:13;;;;;;;8.55;3.22;;;5.90;99.90;;;;;;5093963;28;20485;-81
2023/01/09 09:37:40;;;;;;;12.50;4.07;;;5.80;99.90;;;;;;5103691;28;20043;-82
2023/01/09 09:40:24;;;;;;;7.97;3.35;;;5.80;99.90;;;;;;5115717;28;20044;-81
2023/01/09 09:46:55;;;;;;;14.48;4.05;;;5.80;99.90;;;;;;5134602;28;20062;-82
2023/01/09 09:49:36;;;;;;;7.35;2.72;;;5.90;99.90;;;;;;5105524;28;20039;-82
2023/01/09 09:52:12;;;;;;;7.18;2.20;;;5.90;99.90;;;;;;5112535;28;20040;-82
2023/01/09 09:54:42;;;;;;;4.43;1.90;;;5.90;99.90;;;;;;5088636;28;20045;-81
2023/01/09 09:57:16;;;;;;;7.30;2.22;;;5.90;99.90;;;;;;5096693;28;20044;-81
2023/01/09 09:59:47;;;;;;;6.10;2.30;;;5.90;99.90;;;;;;5105760;28;20050;-82
2023/01/09 10:02:22;;;;;;;9.48;2.20;;;5.90;99.90;;;;;;5125843;28;20077;-82
2023/01/09 10:04:54;;;;;;;;;;;5.90;99.90;;;;;;5109373;28;20425;-82
2023/01/09 10:07:29;;;;;;;5.90;2.20;;;5.90;99.90;;;;;;5124751;28;19916;-81
2023/01/09 10:10:00;;;;;;;8.90;1.98;;;6.00;99.90;;;;;;5124939;28;20556;-82
2023/01/09 10:12:28;;;;;;;6.97;2.15;;;6.00;99.90;;;;;;5108315;28;20181;-82
2023/01/09 10:14:57;;;;;;;9.75;2.20;;;6.00;99.90;;;;;;5108743;28;20059;-82
2023/01/09 10:17:57;;;;;;;4.65;2.00;;;6.00;99.90;;;;;;5125117;28;20047;-82
2023/01/09 10:20:24;;;;;;;6.38;1.90;;;6.10;99.90;;;;;;5124103;28;20567;-82
2023/01/09 10:23:16;;;;;;;8.85;2.33;;;6.10;99.90;;;;;;5108410;28;20127;-82
2023/01/09 10:25:48;;;;;;;3.97;1.77;;;6.10;99.90;;;;;;5107706;28;20439;-81
2023/01/09 10:29:04;;;;;;;4.65;2.15;;;6.10;99.90;;;;;;5094400;28;20045;-82
2023/01/09 10:31:39;;;;;;;4.75;2.13;;;6.20;99.90;;;;;;5092154;28;20041;-82
2023/01/09 10:34:25;;;;;;;6.63;2.03;;;6.30;99.90;;;;;;5105212;28;20046;-81
2023/01/09 10:37:07;;;;;;;6.28;2.08;;;6.30;99.90;;;;;;5092992;28;20043;-82
2023/01/09 10:39:51;;;;;;;6.13;2.00;;;6.30;99.90;;;;;;5125262;28;20044;-83
2023/01/09 10:42:25;;;;;;;7.70;2.85;;;6.40;99.90;;;;;;5110494;28;20116;-82
2023/01/09 10:45:04;;;;;;;8.18;2.17;;;6.40;99.90;;;;;;5126402;28;20068;-82
2023/01/09 10:47:34;;;;;;;12.43;2.85;;;6.50;99.90;;;;;;5105044;28;20127;-81
2023/01/09 10:50:21;;;;;;;6.35;1.73;;;6.50;99.90;;;;;;5125346;28;20035;-82
2023/01/09 10:52:53;;;;;;;4.78;1.70;;;6.50;99.90;;;;;;5124182;28;20044;-82
2023/01/09 10:55:41;;;;;;;7.22;1.75;;;6.60;99.90;;;;;;5087519;28;20032;-82
2023/01/09 10:58:17;;;;;;;4.72;1.75;;;6.60;99.90;;;;;;5130373;28;20074;-81
2023/01/09 11:00:45;;;;;;;7.15;1.45;;;6.60;99.90;;;;;;5090372;28;20048;-87
2023/01/09 11:03:16;;;;;;;3.60;1.60;;;6.60;99.90;;;;;;5069977;28;20040;-81
2023/01/09 11:05:51;;;;;;;12.65;1.48;;;6.60;99.90;;;;;;5138539;28;20069;-82
2023/01/09 11:08:36;;;;;;;4.40;2.33;;;6.60;99.90;;;;;;5116299;28;20043;-82
2023/01/09 11:11:03;;;;;;;6.63;2.50;;;6.70;99.90;;;;;;5120945;28;20079;-81
2023/01/09 11:13:32;;;;;;;8.50;3.00;;;6.60;99.90;;;;;;5107688;28;20060;-81
2023/01/09 11:16:05;;;;;;;5.10;2.55;;;6.70;99.90;;;;;;5110314;28;20508;-81
2023/01/09 11:18:34;;;;;;;10.13;2.90;;;6.60;99.90;;;;;;5106641;28;20036;-83
2023/01/09 11:21:28;;;;;;;8.98;2.85;;;6.60;99.90;;;;;;5113943;28;20100;-81
2023/01/09 11:23:55;;;;;;;6.82;2.92;;;6.70;99.90;;;;;;5105416;28;20048;-81
2023/01/09 11:26:25;;;;;;;7.38;2.58;;;6.60;99.90;;;;;;5087745;28;20037;-81
2023/01/09 11:29:05;;;;;;;5.85;2.20;;;6.70;99.90;;;;;;5110403;28;20063;-82
2023/01/09 11:31:33;;;;;;;6.22;2.45;;;6.70;99.90;;;;;;5094761;28;20047;-81
2023/01/09 11:33:59;;;;;;;8.95;2.67;;;6.70;99.90;;;;;;5100725;28;20451;-82
2023/01/09 11:36:26;;;;;;;4.68;2.22;;;6.60;99.90;;;;;;5115860;28;20045;-81
2023/01/09 11:38:56;;;;;;;5.68;2.42;;;6.60;99.90;;;;;;5113493;28;20047;-82
2023/01/09 11:41:27;;;;;;;5.15;2.22;;;6.60;99.90;;;;;;5137675;28;20462;-81
2023/01/09 11:44:02;;;;;;;5.38;2.30;;;6.60;99.90;;;;;;5113058;28;20036;-81
2023/01/09 11:46:41;;;;;;;5.03;2.53;;;6.60;99.90;;;;;;5110629;28;20064;-81
2023/01/09 11:49:13;;;;;;;10.02;2.60;;;6.60;99.90;;;;;;5115704;28;20217;-81
2023/01/09 11:51:41;;;;;;;6.88;2.88;;;6.60;99.90;;;;;;5112920;28;20118;-81
2023/01/09 11:54:27;;;;;;;7.30;2.67;;;6.60;99.90;;;;;;5109007;28;20042;-81
2023/01/09 11:56:54;;;;;;;5.70;2.42;;;6.60;99.90;;;;;;5131497;28;20043;-81
2023/01/09 11:59:26;;;;;;;5.57;2.30;;;6.60;99.90;;;;;;5084265;28;20040;-81
2023/01/09 12:02:01;;;;;;;5.88;1.80;;;6.60;99.90;;;;;;5139567;28;20039;-81
2023/01/09 12:04:36;;;;;;;4.68;1.95;;;6.60;99.90;;;;;;5114902;28;20074;-80
2023/01/09 12:07:49;;;;;;;6.63;2.50;;;6.60;99.90;;;;;;5120459;28;20407;-80
2023/01/09 12:10:47;;;;;;;4.45;1.92;;;6.60;99.90;;;;;;5147301;28;20615;-80
2023/01/09 12:13:32;;;;;;;4.88;2.15;;;6.60;99.90;;;;;;5093345;28;20060;-80
2023/01/09 12:16:33;;;;;;;5.22;1.90;;;6.60;99.90;;;;;;5067354;28;20478;-80
2023/01/09 12:19:14;;;;;;;5.38;1.90;;;6.60;99.90;;;;;;5049960;28;20042;-81
2023/01/09 12:22:00;;;;;;;4.45;1.80;;;6.60;99.90;;;;;;5067384;28;20438;-80
2023/01/09 12:24:42;;;;;;;7.07;2.40;;;6.60;99.90;;;;;;5060300;28;20074;-80
2023/01/09 12:27:30;;;;;;;8.65;3.10;;;6.60;99.90;;;;;;5085332;28;20472;-81
2023/01/09 12:30:03;;;;;;;4.95;2.22;;;6.60;99.90;;;;;;5064668;28;20094;-80
2023/01/09 12:33:18;;;;;;;8.55;2.85;;;6.60;99.90;;;;;;5074955;28;20036;-81
2023/01/09 12:36:11;;;;;;;7.20;2.30;;;6.60;99.90;;;;;;5013533;28;20974;-80
2023/01/09 12:38:49;;;;;;;6.93;2.72;;;6.60;99.90;;;;;;5000052;28;20045;-80
2023/01/09 12:41:23;;;;;;;8.18;3.10;;;6.60;99.90;;;;;;5068479;28;20051;-81
2023/01/09 12:43:56;;;;;;;6.07;3.00;;;6.60;99.90;;;;;;5069078;28;20041;-80
2023/01/09 12:46:34;;;;;;;8.13;3.03;;;6.60;99.90;;;;;;5070354;28;20177;-80
2023/01/09 12:49:22;;;;;;;7.32;2.97;;;6.60;99.90;;;;;;5069211;28;20037;-80
2023/01/09 12:52:00;;;;;;;8.40;3.38;;;6.60;99.90;;;;;;5073154;28;20045;-80
2023/01/09 12:54:44;;;;;;;7.78;3.25;;;6.60;99.90;;;;;;5065905;28;20744;-80
2023/01/09 12:57:23;;;;;;;7.05;2.80;;;6.60;99.90;;;;;;5066008;28;20042;-80
2023/01/09 12:59:57;;;;;;;6.47;3.25;;;6.70;99.90;;;;;;5070817;28;20119;-79
2023/01/09 13:02:57;;;;;;;12.68;5.75;;;6.70;99.90;;;;;;5066119;28;20044;-81
2023/01/09 13:05:35;;;;;;;6.88;3.75;;;6.70;99.90;;;;;;5066157;28;20044;-80
2023/01/09 13:08:07;;;;;;;6.72;3.15;;;6.70;99.90;;;;;;5077557;28;20528;-80
2023/01/09 13:10:41;;;;;;;7.75;2.88;;;6.70;99.90;;;;;;5089475;28;20059;-80
2023/01/09 13:13:34;;;;;;;6.55;3.20;;;6.70;99.90;;;;;;5119875;28;20412;-80
2023/01/09 13:16:04;;;;;;;6.10;3.70;;;6.70;99.90;;;;;;5127013;28;20043;-81
2023/01/09 13:18:31;;;;;;;6.22;3.38;;;6.70;99.90;;;;;;5109999;28;20036;-80
2023/01/09 13:21:00;;;;;;;8.18;3.22;;;6.70;99.90;;;;;;5113413;28;20092;-81
2023/01/09 13:23:29;;;;;;;7.03;3.80;;;6.80;99.90;;;;;;5100444;28;20128;-80
2023/01/09 13:26:01;;;;;;;8.10;3.53;;;6.70;99.90;;;;;;5128707;28;20075;-80
2023/01/09 13:28:32;;;;;;;5.50;3.13;;;6.70;99.90;;;;;;5136751;28;20043;-81
2023/01/09 13:31:29;;;;;;;6.22;3.60;;;6.70;99.90;;;;;;5133594;28;20032;-80